Time;durP1;ratioP1;P1;durP2;ratioP2;P2;SDS_P1;SDS_P2;PMS_P1;PMS_P2;Temp;Humidity;BMP_temperature;BMP_pressure;BME280_temperature;BME280_humidity;BME280_pressure;Samples;Min_cycle;Max_cycle;Signal;HPM_P1;HPM_P2
2022/11/02 00:00:13;;;;;;;16.07;2.27;;;;;;;10.38;100.00;99976.59;4946121;29;20027;-73
2022/11/02 00:02:40;;;;;;;14.43;3.08;;;;;;;10.30;100.00;99989.97;4928754;29;20036;-73
2022/11/02 00:05:09;;;;;;;10.95;2.55;;;;;;;10.25;100.00;100011.00;4928601;29;20118;-73
2022/11/02 00:07:35;;;;;;;9.82;2.20;;;;;;;10.32;100.00;100036.00;4945603;29;20036;-73
2022/11/02 00:10:00;;;;;;;9.13;2.73;;;;;;;10.29;100.00;100025.69;4946224;29;20039;-72
2022/11/02 00:12:25;;;;;;;13.37;2.60;;;;;;;10.24;100.00;100031.53;4945199;29;20030;-73
2022/11/02 00:14:51;;;;;;;12.07;2.80;;;;;;;10.20;100.00;100030.22;4928468;29;20044;-72
2022/11/02 00:17:17;;;;;;;10.43;2.40;;;;;;;10.24;100.00;100052.88;4947390;28;20039;-73
2022/11/02 00:19:43;;;;;;;8.82;1.83;;;;;;;10.19;100.00;100043.75;4949136;29;20039;-73
2022/11/02 00:22:08;;;;;;;11.77;2.75;;;;;;;10.20;100.00;100070.22;4949287;29;20042;-73
2022/11/02 00:24:34;;;;;;;13.57;2.97;;;;;;;10.16;100.00;100076.94;4931733;29;20027;-73
2022/11/02 00:27:00;;;;;;;12.95;2.17;;;;;;;10.14;100.00;100079.78;4963671;28;20043;-73
2022/11/02 00:29:25;;;;;;;8.85;2.03;;;;;;;10.06;100.00;100081.66;4949224;29;20043;-73
2022/11/02 00:31:50;;;;;;;14.47;3.00;;;;;;;9.97;100.00;100106.69;4964045;28;20163;-73
2022/11/02 00:34:16;;;;;;;11.67;2.90;;;;;;;10.01;100.00;100124.84;4931887;29;20046;-73
2022/11/02 00:36:42;;;;;;;11.65;1.80;;;;;;;9.89;100.00;100115.56;4931036;29;20035;-73
2022/11/02 00:39:07;;;;;;;14.37;2.87;;;;;;;9.87;100.00;100146.91;4948627;29;20409;-73
2022/11/02 00:41:32;;;;;;;11.43;2.37;;;;;;;9.79;100.00;100145.13;4930971;29;20062;-73
2022/11/02 00:43:58;;;;;;;11.07;2.67;;;;;;;9.76;100.00;100164.09;4931781;29;20539;-73
2022/11/02 00:46:24;;;;;;;;;;;;;;;9.67;100.00;100187.31;4947771;29;20051;-73
2022/11/02 00:48:49;;;;;;;6.63;2.13;;;;;;;9.65;100.00;100201.81;4931192;29;20033;-72
2022/11/02 00:51:15;;;;;;;15.25;3.10;;;;;;;9.69;100.00;100221.75;4947809;28;20085;-73
2022/11/02 00:53:41;;;;;;;17.45;3.28;;;;;;;9.71;100.00;100217.91;4932081;29;20436;-73
2022/11/02 00:56:07;;;;;;;10.20;2.87;;;;;;;9.65;100.00;100199.13;4948692;29;20073;-73
2022/11/02 00:58:33;;;;;;;14.32;2.03;;;;;;;9.63;100.00;100201.13;4947261;28;20078;-73
2022/11/02 01:01:04;;;;;;;10.05;2.38;;;;;;;9.70;100.00;100213.59;4963402;28;20086;-73
2022/11/02 01:03:29;;;;;;;7.65;2.47;;;;;;;9.67;100.00;100191.81;4948537;29;20070;-71
2022/11/02 01:05:54;;;;;;;11.60;2.83;;;;;;;9.60;100.00;100180.13;4931112;29;20118;-71
2022/11/02 01:08:19;;;;;;;12.67;2.67;;;;;;;9.58;100.00;100203.47;4931206;29;20063;-71
2022/11/02 01:10:45;;;;;;;10.47;2.70;;;;;;;9.59;100.00;100200.63;4947138;29;20540;-70
2022/11/02 01:13:10;;;;;;;12.13;1.90;;;;;;;9.58;100.00;100204.31;4924108;29;20449;-71
2022/11/02 01:15:38;;;;;;;12.73;2.33;;;;;;;9.64;100.00;100208.94;4962653;28;20473;-71
2022/11/02 01:18:04;;;;;;;15.05;2.00;;;;;;;9.59;100.00;100197.13;4948311;29;20194;-71
2022/11/02 01:20:30;;;;;;;10.07;2.42;;;;;;;9.65;100.00;100207.13;4963444;28;20032;-71
2022/11/02 01:22:57;;;;;;;18.13;2.10;;;;;;;9.63;100.00;100187.81;4930954;29;20575;-72
2022/11/02 01:25:23;;;;;;;12.30;2.35;;;;;;;9.61;100.00;100174.63;4946722;28;20102;-73
2022/11/02 01:27:49;;;;;;;10.65;1.95;;;;;;;9.52;100.00;100183.66;4962702;28;20031;-73
2022/11/02 01:30:15;;;;;;;7.93;2.10;;;;;;;9.54;100.00;100205.63;4931080;29;20035;-73
2022/11/02 01:32:42;;;;;;;10.18;2.17;;;;;;;9.59;100.00;100205.13;4946878;29;20067;-73
2022/11/02 01:35:09;;;;;;;13.00;2.33;;;;;;;9.62;100.00;100192.31;4947700;29;20031;-73
2022/11/02 01:37:36;;;;;;;15.00;3.03;;;;;;;9.57;100.00;100189.31;4962383;28;20054;-72
2022/11/02 01:40:01;;;;;;;10.33;2.53;;;;;;;9.53;100.00;100193.34;4947995;29;20032;-73
2022/11/02 01:42:27;;;;;;;9.30;2.00;;;;;;;9.45;100.00;100193.31;4947351;29;20074;-73
2022/11/02 01:44:53;;;;;;;7.00;2.00;;;;;;;9.41;100.00;100206.16;4962136;28;20037;-73
2022/11/02 01:47:41;;;;;;;10.30;2.35;;;;;;;9.51;100.00;100236.13;4962578;28;20039;-73
2022/11/02 01:50:26;;;;;;;7.43;1.90;;;;;;;9.56;100.00;100216.97;4933966;29;20392;-73
2022/11/02 01:52:52;;;;;;;5.43;2.53;;;;;;;9.54;100.00;100205.63;4947515;29;20211;-73
2022/11/02 01:55:21;;;;;;;13.98;1.90;;;;;;;9.44;100.00;100207.66;4946461;29;20023;-73
2022/11/02 01:57:54;;;;;;;9.13;2.25;;;;;;;9.42;100.00;100215.81;4962179;28;20046;-73
2022/11/02 02:00:20;;;;;;;8.80;2.83;;;;;;;9.46;100.00;100226.97;4962657;28;20035;-73
2022/11/02 02:03:17;;;;;;;9.35;1.92;;;;;;;9.53;100.00;100225.31;4930219;29;20402;-73
2022/11/02 02:05:48;;;;;;;9.30;2.00;;;;;;;9.52;100.00;100220.97;4887165;29;20048;-73
2022/11/02 02:08:22;;;;;;;5.68;2.13;;;;;;;9.50;100.00;100217.63;4888110;29;20036;-73
2022/11/02 02:10:47;;;;;;;12.05;2.22;;;;;;;9.41;100.00;100211.50;4857055;29;20080;-73
2022/11/02 02:13:14;;;;;;;15.73;3.23;;;;;;;9.45;100.00;100233.28;4872452;29;20122;-73
2022/11/02 02:15:53;;;;;;;8.38;2.58;;;;;;;9.44;100.00;100224.47;4871441;29;20036;-73
2022/11/02 02:18:25;;;;;;;11.93;2.22;;;;;;;9.46;100.00;100211.81;4887900;29;20052;-73
2022/11/02 02:21:13;;;;;;;9.77;1.77;;;;;;;9.43;100.00;100190.81;4862897;29;20199;-73
2022/11/02 02:24:25;;;;;;;10.38;3.70;;;;;;;9.37;100.00;100198.69;4870172;29;20491;-73
2022/11/02 02:27:19;;;;;;;9.27;2.53;;;;;;;9.29;100.00;100195.03;4868214;29;20041;-73
2022/11/02 02:30:08;;;;;;;8.27;3.33;;;;;;;9.35;100.00;100237.97;4887178;29;20049;-73
2022/11/02 02:32:52;;;;;;;11.60;2.42;;;;;;;9.36;100.00;100218.31;4856622;29;20064;-73
2022/11/02 02:35:27;;;;;;;11.10;2.95;;;;;;;9.32;100.00;100214.31;4887331;29;20036;-73
2022/11/02 02:37:59;;;;;;;7.32;1.80;;;;;;;9.23;100.00;100214.31;4887316;29;20029;-72
2022/11/02 02:40:35;;;;;;;10.57;2.05;;;;;;;9.28;100.00;100233.31;4886593;29;20132;-72
2022/11/02 02:43:05;;;;;;;;;;;;;;;9.31;100.00;100237.47;4917732;29;20366;-73
2022/11/02 02:45:36;;;;;;;14.07;2.42;;;;;;;9.29;100.00;100231.47;4961494;28;19925;-73
2022/11/02 02:48:09;;;;;;;5.25;2.10;;;;;;;9.27;100.00;100228.13;4911845;29;20039;-73
2022/11/02 02:50:41;;;;;;;8.85;1.92;;;;;;;9.36;100.00;100243.13;4958555;28;20047;-73
2022/11/02 02:53:08;;;;;;;17.75;2.85;;;;;;;9.37;100.00;100234.13;4929892;29;20090;-73
2022/11/02 02:55:41;;;;;;;19.77;2.42;;;;;;;9.40;100.00;100227.63;4929107;29;20027;-73
2022/11/02 02:58:14;;;;;;;8.80;2.22;;;;;;;9.43;100.00;100233.44;4961762;28;20027;-73
2022/11/02 03:00:40;;;;;;;15.07;3.33;;;;;;;9.44;100.00;100232.47;4929311;29;20039;-73
2022/11/02 03:03:19;;;;;;;9.35;2.22;;;;;;;9.45;100.00;100239.44;4929602;29;20086;-73
2022/11/02 03:06:02;;;;;;;14.80;3.10;;;;;;;9.50;100.00;100223.81;4946063;29;20043;-73
2022/11/02 03:08:29;;;;;;;7.55;1.98;;;;;;;9.48;100.00;100214.28;4929496;29;20488;-73
2022/11/02 03:11:13;;;;;;;16.80;4.40;;;;;;;9.52;100.00;100219.13;4929169;29;20082;-73
2022/11/02 03:13:48;;;;;;;9.15;2.35;;;;;;;9.59;100.00;100227.28;4929154;29;20046;-72
2022/11/02 03:16:26;;;;;;;16.08;1.98;;;;;;;9.67;100.00;100211.28;4913443;29;20054;-73
2022/11/02 03:19:05;;;;;;;14.60;2.10;;;;;;;9.72;100.00;100213.44;4960997;28;20122;-73
2022/11/02 03:21:40;;;;;;;9.70;2.60;;;;;;;9.74;100.00;100208.78;4929694;29;20163;-72
2022/11/02 03:24:17;;;;;;;12.50;2.30;;;;;;;9.74;100.00;100214.13;4925480;29;20019;-73
2022/11/02 03:27:09;;;;;;;15.90;3.40;;;;;;;9.78;100.00;100209.25;4911344;29;20035;-73
2022/11/02 03:30:03;;;;;;;7.85;3.03;;;;;;;9.81;100.00;100216.91;4911710;29;20063;-73
2022/11/02 03:32:45;;;;;;;6.90;1.85;;;;;;;9.83;100.00;100218.44;4925357;29;20044;-73
2022/11/02 03:35:18;;;;;;;13.32;2.75;;;;;;;9.87;100.00;100237.56;4929154;29;20634;-73
2022/11/02 03:38:16;;;;;;;13.40;3.50;;;;;;;9.88;100.00;100241.88;4928511;29;20109;-73
2022/11/02 03:40:46;;;;;;;12.45;2.63;;;;;;;9.88;100.00;100287.22;4912518;29;20344;-74
2022/11/02 03:43:13;;;;;;;20.50;2.70;;;;;;;9.78;100.00;100356.72;4929128;29;20090;-74
2022/11/02 03:45:48;;;;;;;10.75;2.53;;;;;;;9.66;100.00;100441.50;4920668;29;20429;-74
2022/11/02 03:48:16;;;;;;;12.85;3.35;;;;;;;9.62;100.00;100477.50;4961066;28;20489;-74
2022/11/02 03:50:47;;;;;;;8.77;2.30;;;;;;;9.61;100.00;100513.13;4960715;28;20077;-75
2022/11/02 03:53:39;;;;;;;9.50;2.00;;;;;;;9.52;100.00;100530.09;4916144;29;20035;-74
2022/11/02 03:56:11;;;;;;;10.20;2.80;;;;;;;9.48;100.00;100555.38;4926971;29;20552;-75
2022/11/02 03:58:37;;;;;;;11.35;2.53;;;;;;;9.46;100.00;100560.06;4957088;28;20497;-75
2022/11/02 04:01:08;;;;;;;10.02;2.55;;;;;;;9.41;100.00;100565.00;4957554;28;20035;-74
2022/11/02 04:03:42;;;;;;;13.82;2.47;;;;;;;9.34;100.00;100574.63;4964280;28;20432;-75
2022/11/02 04:06:08;;;;;;;8.57;1.83;;;;;;;9.33;100.00;100592.47;4949478;29;20481;-75
2022/11/02 04:08:39;;;;;;;14.20;2.40;;;;;;;9.31;100.00;100602.44;4963916;28;20027;-75
2022/11/02 04:16:41;;;;;;;17.65;2.58;;;;;;;9.27;100.00;100601.94;4931691;29;20034;-74
2022/11/02 04:19:27;;;;;;;10.93;2.22;;;;;;;9.30;100.00;100606.09;4932194;29;20074;-75
2022/11/02 04:27:31;;;;;;;13.65;2.30;;;;;;;9.23;100.00;100583.75;4931754;29;20035;-75
2022/11/02 04:29:57;;;;;;;8.88;2.22;;;;;;;9.22;100.00;100580.22;4948839;29;20031;-75
2022/11/02 04:35:11;;;;;;;13.82;2.88;;;;;;;9.24;100.00;100558.78;4931383;29;20031;-75
2022/11/02 04:40:28;;;;;;;12.32;2.67;;;;;;;9.35;100.00;100528.38;4931015;29;20031;-75
2022/11/02 04:42:54;;;;;;;13.35;3.20;;;;;;;9.32;100.00;100507.34;4931363;29;20105;-75
2022/11/02 04:45:19;;;;;;;9.73;2.13;;;;;;;9.34;100.00;100505.38;4948499;29;20110;-75
2022/11/02 04:47:46;;;;;;;11.80;3.20;;;;;;;9.28;100.00;100480.22;4929229;29;20421;-74
2022/11/02 04:50:12;;;;;;;16.67;2.83;;;;;;;9.36;100.00;100493.56;4897230;29;20027;-72
2022/11/02 04:52:38;;;;;;;12.60;2.00;;;;;;;9.36;100.00;100471.41;4929932;29;20035;-75
2022/11/02 04:55:05;;;;;;;12.40;2.58;;;;;;;9.34;100.00;100484.91;4962875;28;20241;-75
2022/11/02 04:57:31;;;;;;;10.05;2.58;;;;;;;9.38;100.00;100480.09;4946907;29;20507;-74
2022/11/02 04:59:58;;;;;;;10.18;2.40;;;;;;;9.39;100.00;100463.09;4905330;29;20027;-74
2022/11/02 05:02:23;;;;;;;19.90;4.07;;;;;;;9.42;100.00;100462.78;4928554;29;20374;-74
2022/11/02 05:04:49;;;;;;;9.65;2.38;;;;;;;9.29;100.00;100456.09;4962086;28;20515;-75
2022/11/02 05:07:15;;;;;;;8.95;2.53;;;;;;;9.28;100.00;100451.75;4930957;29;20516;-74
2022/11/02 05:09:43;;;;;;;17.60;3.47;;;;;;;9.29;100.00;100461.41;4930657;29;20107;-74
2022/11/02 05:12:11;;;;;;;13.27;2.30;;;;;;;9.24;100.00;100458.38;4931369;29;20035;-74
2022/11/02 05:14:36;;;;;;;11.33;2.40;;;;;;;9.23;100.00;100458.56;4930744;29;20039;-74
2022/11/02 05:17:02;;;;;;;6.33;2.43;;;;;;;9.23;100.00;100462.06;4948576;29;20468;-74
2022/11/02 05:19:27;;;;;;;13.57;2.63;;;;;;;9.25;100.00;100453.91;4947097;28;20015;-74
2022/11/02 05:21:52;;;;;;;11.37;2.30;;;;;;;9.22;100.00;100443.56;4962714;28;20130;-74
2022/11/02 05:24:18;;;;;;;15.10;1.87;;;;;;;9.17;100.00;100457.34;4930565;29;20067;-74
2022/11/02 05:26:43;;;;;;;10.10;1.75;;;;;;;9.11;100.00;100452.69;4962055;28;20122;-74
2022/11/02 05:29:09;;;;;;;9.47;3.03;;;;;;;9.10;100.00;100456.31;4963342;28;20612;-74
2022/11/02 05:31:35;;;;;;;12.20;2.38;;;;;;;9.16;100.00;100462.84;4962278;28;20286;-74
2022/11/02 05:34:00;;;;;;;11.00;2.77;;;;;;;9.16;100.00;100453.03;4897741;29;20071;-74
2022/11/02 05:36:26;;;;;;;7.43;2.38;;;;;;;9.22;100.00;100459.53;4958478;28;20066;-74
2022/11/02 05:38:53;;;;;;;21.20;3.17;;;;;;;9.25;100.00;100461.91;4930445;29;20040;-74
2022/11/02 05:41:19;;;;;;;6.88;1.92;;;;;;;9.24;100.00;100458.38;4930123;29;20034;-74
2022/11/02 05:43:45;;;;;;;8.90;1.90;;;;;;;9.22;100.00;100471.00;4930351;29;20031;-74
2022/11/02 05:46:15;;;;;;;10.48;2.22;;;;;;;9.24;100.00;100474.34;4930237;29;20565;-74
2022/11/02 05:48:41;;;;;;;14.68;2.53;;;;;;;9.19;100.00;100457.19;4929756;29;20035;-74
2022/11/02 05:51:08;;;;;;;15.80;3.20;;;;;;;9.15;100.00;100462.00;4940057;29;20575;-74
2022/11/02 05:53:37;;;;;;;9.82;2.63;;;;;;;9.19;100.00;100482.00;4947210;29;20290;-74
2022/11/02 05:56:04;;;;;;;16.92;4.65;;;;;;;9.26;100.00;100477.69;4947094;29;20020;-74
2022/11/02 05:58:30;;;;;;;11.02;2.58;;;;;;;9.35;100.00;100480.41;4947346;29;20031;-74
2022/11/02 06:00:59;;;;;;;;;;;;;;;9.36;100.00;100466.09;4962126;28;20090;-74
2022/11/02 06:03:25;;;;;;;12.15;3.08;;;;;;;9.39;100.00;100465.75;4946831;29;19937;-74
2022/11/02 06:06:04;;;;;;;10.50;2.07;;;;;;;9.45;100.00;100468.59;4946306;29;20047;-74
2022/11/02 06:08:32;;;;;;;16.98;2.47;;;;;;;9.62;100.00;100456.19;4914234;29;20110;-74
2022/11/02 06:10:58;;;;;;;9.98;2.90;;;;;;;9.68;100.00;100450.19;4911637;29;20542;-74
2022/11/02 06:13:23;;;;;;;19.65;3.22;;;;;;;9.64;100.00;100448.84;4943105;29;20122;-74
2022/11/02 06:15:49;;;;;;;11.63;2.10;;;;;;;9.63;100.00;100455.16;4945425;29;20031;-74
2022/11/02 06:18:14;;;;;;;11.57;2.03;;;;;;;9.59;100.00;100445.81;4961702;28;20488;-74
2022/11/02 06:20:39;;;;;;;20.87;3.80;;;;;;;9.63;100.00;100436.50;4946797;29;20420;-74
2022/11/02 06:23:05;;;;;;;7.77;2.20;;;;;;;9.62;100.00;100434.88;4947415;29;20529;-74
2022/11/02 06:25:30;;;;;;;8.10;2.17;;;;;;;9.72;100.00;100432.88;4929423;29;20130;-74
2022/11/02 06:27:56;;;;;;;14.83;2.43;;;;;;;9.66;100.00;100414.84;4929478;29;20039;-74
2022/11/02 06:30:25;;;;;;;16.70;3.75;;;;;;;9.67;100.00;100415.72;4954615;28;20023;-74
2022/11/02 06:32:53;;;;;;;7.45;2.78;;;;;;;9.77;100.00;100410.22;4938251;29;20786;-74
2022/11/02 06:35:21;;;;;;;10.68;1.65;;;;;;;9.72;100.00;100384.88;4945149;29;20715;-74
2022/11/02 06:37:46;;;;;;;12.77;2.25;;;;;;;9.69;100.00;100387.88;4938744;29;20075;-74
2022/11/02 06:40:12;;;;;;;10.68;2.63;;;;;;;9.71;100.00;100380.53;4944647;29;20129;-74
2022/11/02 06:42:39;;;;;;;13.10;2.55;;;;;;;9.78;100.00;100369.22;4938424;29;20093;-74
2022/11/02 06:45:05;;;;;;;17.55;2.50;;;;;;;9.83;100.00;100367.72;4932038;29;20034;-74
2022/11/02 06:47:32;;;;;;;;;;;;;;;9.88;100.00;100370.72;4915029;29;20094;-74
2022/11/02 06:49:58;;;;;;;13.27;2.55;;;;;;;9.89;100.00;100366.22;4903586;29;20525;-74
2022/11/02 06:52:24;;;;;;;;;;;;;;;9.93;100.00;100355.06;4943956;29;20472;-74
2022/11/02 06:54:49;;;;;;;;;;;;;;;9.92;100.00;100352.53;4945126;29;19956;-75
2022/11/02 06:57:14;;;;;;;10.90;2.50;;;;;;;9.97;100.00;100358.19;4929750;29;19915;-74
2022/11/02 06:59:39;;;;;;;14.13;3.97;;;;;;;9.98;100.00;100346.56;4946073;29;20472;-73
2022/11/02 07:02:05;;;;;;;28.33;2.47;;;;;;;9.92;100.00;100344.53;4929361;29;20628;-74
2022/11/02 07:04:30;;;;;;;14.63;2.13;;;;;;;9.94;100.00;100353.22;4961112;28;20041;-75
2022/11/02 07:06:55;;;;;;;12.03;3.20;;;;;;;10.00;100.00;100347.22;4945752;29;20063;-73
2022/11/02 07:09:21;;;;;;;11.83;2.00;;;;;;;9.89;100.00;100344.88;4928956;29;20043;-73
2022/11/02 07:11:46;;;;;;;10.47;1.70;;;;;;;9.89;100.00;100356.38;4928856;29;20062;-74
2022/11/02 07:14:11;;;;;;;11.53;2.63;;;;;;;9.94;100.00;100370.03;4946251;29;20814;-75
2022/11/02 07:16:37;;;;;;;11.40;2.23;;;;;;;9.92;100.00;100384.53;4928155;29;20503;-74
2022/11/02 07:19:02;;;;;;;8.47;1.97;;;;;;;10.18;100.00;100391.53;4945131;29;20374;-74
2022/11/02 07:21:28;;;;;;;12.20;2.80;;;;;;;10.30;100.00;100374.19;4929001;29;20035;-75
2022/11/02 07:23:53;;;;;;;14.83;3.00;;;;;;;10.38;100.00;100342.16;4960298;28;20039;-75
2022/11/02 07:26:18;;;;;;;9.97;1.80;;;;;;;10.70;100.00;100343.03;4939994;29;20031;-74
2022/11/02 07:28:44;;;;;;;6.97;2.17;;;;;;;10.72;100.00;100292.97;4932543;29;20171;-75
2022/11/02 07:31:10;;;;;;;10.65;2.25;;;;;;;10.68;100.00;100273.00;4932986;29;20047;-75
2022/11/02 07:33:35;;;;;;;9.77;2.20;;;;;;;10.75;100.00;100258.75;4932522;29;20035;-75
2022/11/02 07:36:02;;;;;;;7.90;1.93;;;;;;;10.92;100.00;100219.44;4932433;29;20042;-73
2022/11/02 07:38:28;;;;;;;22.95;4.15;;;;;;;11.19;100.00;100183.34;4932556;29;20035;-75
2022/11/02 07:40:53;;;;;;;13.83;3.30;;;;;;;11.31;100.00;100126.78;4916570;29;20031;-74
2022/11/02 07:43:18;;;;;;;15.40;1.93;;;;;;;11.47;100.00;100085.69;4948664;29;20484;-74
2022/11/02 07:45:53;;;;;;;17.15;3.17;;;;;;;11.80;100.00;100046.03;4931581;29;20031;-74
2022/11/02 07:48:19;;;;;;;10.67;1.70;;;;;;;11.80;100.00;99961.28;4948426;29;20039;-74
2022/11/02 07:50:45;;;;;;;12.70;3.22;;;;;;;11.67;100.00;99918.34;4931952;29;20294;-74
2022/11/02 07:53:10;;;;;;;10.80;2.13;;;;;;;11.67;100.00;99870.22;4911411;29;20837;-75
2022/11/02 07:55:35;;;;;;;14.32;2.60;;;;;;;11.96;100.00;99916.59;4898462;29;20027;-73
2022/11/02 07:58:03;;;;;;;10.03;2.07;;;;;;;11.54;100.00;99856.69;4943448;29;20386;-74
2022/11/02 08:00:32;;;;;;;12.95;1.85;;;;;;;11.31;100.00;99903.16;4964323;28;20042;-75
2022/11/02 08:02:59;;;;;;;7.75;1.50;;;;;;;11.30;100.00;99960.25;4913893;29;20032;-74
2022/11/02 08:05:26;;;;;;;4.57;2.08;;;;;;;11.21;100.00;100009.47;4959873;28;20086;-75
2022/11/02 08:08:03;;;;;;;7.72;1.70;;;;;;;11.19;100.00;100043.53;4948845;29;20028;-74
2022/11/02 08:10:30;;;;;;;6.45;1.88;;;;;;;11.18;100.00;100076.63;4956769;28;20027;-75
2022/11/02 08:12:56;;;;;;;7.97;2.30;;;;;;;11.12;100.00;100086.22;4916829;29;20849;-72
2022/11/02 08:15:22;;;;;;;7.10;1.85;;;;;;;11.12;100.00;100130.78;4947408;29;20114;-75
2022/11/02 08:17:47;;;;;;;8.95;2.28;;;;;;;11.13;100.00;100156.50;4931531;29;20658;-75
2022/11/02 08:20:13;;;;;;;9.48;2.13;;;;;;;11.22;100.00;100157.28;4963866;28;20055;-75
2022/11/02 08:22:39;;;;;;;7.93;1.73;;;;;;;11.34;100.00;100188.72;4928850;29;20045;-75
2022/11/02 08:25:06;;;;;;;11.18;2.10;;;;;;;11.50;100.00;100201.09;4916230;29;20050;-75
2022/11/02 08:27:32;;;;;;;9.45;2.40;;;;;;;11.52;100.00;100166.16;4924279;29;20040;-75
2022/11/02 08:29:57;;;;;;;8.40;2.65;;;;;;;11.52;100.00;100134.06;4897206;29;20039;-75
2022/11/02 08:32:23;;;;;;;11.77;2.13;;;;;;;11.44;100.00;100143.00;4936985;29;20031;-75
2022/11/02 08:34:48;;;;;;;12.27;2.53;;;;;;;11.34;100.00;100183.38;4948043;29;20102;-72
2022/11/02 08:37:13;;;;;;;14.43;3.20;;;;;;;11.35;100.00;100186.88;4946441;28;20031;-75
2022/11/02 08:39:39;;;;;;;10.77;2.87;;;;;;;11.38;100.00;100206.06;4948363;29;20041;-75
2022/11/02 08:42:04;;;;;;;11.90;3.00;;;;;;;11.45;100.00;100221.34;4915672;29;20035;-74
2022/11/02 08:44:30;;;;;;;8.87;2.23;;;;;;;11.40;100.00;100216.53;4962531;28;20067;-75
2022/11/02 08:46:55;;;;;;;9.20;3.30;;;;;;;11.40;100.00;100222.75;4947938;29;20133;-75
2022/11/02 08:49:20;;;;;;;6.73;2.70;;;;;;;11.47;100.00;100227.34;4963489;28;20078;-73
2022/11/02 08:51:46;;;;;;;13.80;2.33;;;;;;;11.54;100.00;100238.97;4963006;28;20045;-73
2022/11/02 08:54:12;;;;;;;11.25;3.17;;;;;;;11.59;100.00;100197.34;4930899;29;20035;-75
2022/11/02 08:56:37;;;;;;;14.23;2.77;;;;;;;11.54;100.00;100121.34;4947806;29;20070;-74
2022/11/02 08:59:02;;;;;;;12.10;3.43;;;;;;;11.66;100.00;100061.06;4947362;29;20476;-73
2022/11/02 09:01:28;;;;;;;7.33;1.70;;;;;;;11.99;100.00;100093.59;4948463;29;20046;-75
2022/11/02 09:03:53;;;;;;;7.67;1.40;;;;;;;11.90;100.00;100061.81;4962781;28;20136;-75
2022/11/02 09:06:18;;;;;;;9.40;2.30;;;;;;;11.72;100.00;100009.50;4930499;29;20062;-75
2022/11/02 09:08:44;;;;;;;10.70;3.30;;;;;;;11.65;100.00;100027.31;4929669;29;20039;-75
2022/11/02 09:11:09;;;;;;;4.30;1.77;;;;;;;11.64;100.00;100079.16;4937771;29;20074;-74
2022/11/02 09:13:37;;;;;;;11.17;1.80;;;;;;;11.81;100.00;100142.09;4913592;29;20042;-75
2022/11/02 09:16:03;;;;;;;10.88;2.58;;;;;;;11.81;100.00;100085.94;4907408;29;20054;-74
2022/11/02 09:18:28;;;;;;;8.23;2.63;;;;;;;11.70;100.00;100086.41;4962831;28;20059;-75
2022/11/02 09:20:54;;;;;;;11.25;2.20;;;;;;;11.66;100.00;100082.47;4962544;28;20038;-75
2022/11/02 09:23:19;;;;;;;8.43;3.00;;;;;;;11.62;100.00;100059.78;4931015;29;20436;-75
2022/11/02 09:25:45;;;;;;;12.15;2.40;;;;;;;11.62;100.00;100081.16;4947400;29;20047;-75
2022/11/02 09:28:11;;;;;;;11.60;3.75;;;;;;;11.83;100.00;100137.41;4930561;29;20035;-73
2022/11/02 09:30:37;;;;;;;11.63;2.40;;;;;;;11.70;100.00;100105.13;4962464;28;20039;-75
2022/11/02 09:33:04;;;;;;;5.80;2.20;;;;;;;11.70;100.00;100070.34;4962895;28;20424;-74
2022/11/02 09:35:39;;;;;;;12.05;2.08;;;;;;;11.64;100.00;100009.63;4914241;29;20023;-74
2022/11/02 09:38:04;;;;;;;9.95;2.17;;;;;;;11.67;100.00;100000.41;4924369;29;20023;-75
2022/11/02 09:40:36;;;;;;;8.85;2.00;;;;;;;11.64;100.00;100049.72;4947975;29;20674;-73
2022/11/02 09:43:33;;;;;;;8.55;2.95;;;;;;;11.64;100.00;100052.41;4930489;29;20389;-74
2022/11/02 09:46:03;;;;;;;5.13;2.35;;;;;;;11.57;100.00;100083.56;4961778;28;20133;-75
2022/11/02 09:48:33;;;;;;;7.32;1.55;;;;;;;11.60;100.00;100115.28;4930324;28;20031;-74
2022/11/02 09:51:06;;;;;;;8.55;2.15;;;;;;;11.63;100.00;100056.06;4930494;29;20019;-75
2022/11/02 09:53:41;;;;;;;7.35;1.55;;;;;;;11.66;100.00;100045.03;4938835;29;20050;-74
2022/11/02 09:56:07;;;;;;;7.35;2.05;;;;;;;11.67;100.00;100083.28;4923478;29;20035;-74
2022/11/02 09:58:37;;;;;;;7.22;1.58;;;;;;;11.66;100.00;100050.38;4913985;29;20034;-74
2022/11/02 10:01:21;;;;;;;9.75;1.83;;;;;;;11.66;100.00;100061.06;4927671;29;20086;-74
2022/11/02 10:04:15;;;;;;;11.00;2.45;;;;;;;11.67;100.00;100060.03;4929358;29;20039;-73
2022/11/02 10:06:49;;;;;;;7.57;2.03;;;;;;;11.74;100.00;100085.03;4910171;29;20052;-74
2022/11/02 10:09:29;;;;;;;9.90;1.80;;;;;;;11.68;100.00;100040.31;4946034;29;20369;-74
2022/11/02 10:12:12;;;;;;;5.50;1.38;;;;;;;11.72;100.00;100046.94;4946125;29;20384;-74
2022/11/02 10:14:48;;;;;;;8.63;1.83;;;;;;;11.70;100.00;100081.06;4945116;29;20117;-75
2022/11/02 10:17:20;;;;;;;5.45;1.60;;;;;;;11.59;100.00;100105.59;4929676;29;20122;-74
2022/11/02 10:19:53;;;;;;;6.50;1.90;;;;;;;11.62;100.00;100167.56;4946712;29;20043;-74
2022/11/02 10:22:23;;;;;;;8.50;1.90;;;;;;;11.51;100.00;100172.50;4930019;29;20063;-74
2022/11/02 10:24:52;;;;;;;11.93;1.75;;;;;;;11.52;100.00;100208.91;4944981;29;20058;-74
2022/11/02 10:27:25;;;;;;;5.90;1.50;;;;;;;11.48;100.00;100218.34;4945383;29;20522;-74
2022/11/02 10:29:58;;;;;;;13.07;1.85;;;;;;;11.76;100.00;100329.03;4929313;29;20062;-74
2022/11/02 10:32:23;;;;;;;6.30;1.90;;;;;;;11.94;100.00;100341.28;4929390;29;20042;-74
2022/11/02 10:34:49;;;;;;;6.47;1.35;;;;;;;11.95;100.00;100284.09;4946338;29;20023;-75
2022/11/02 10:37:22;;;;;;;7.25;1.60;;;;;;;12.20;100.00;100178.44;4904951;29;20086;-75
2022/11/02 10:39:57;;;;;;;6.40;1.98;;;;;;;12.11;100.00;100051.13;4927100;29;20041;-75
2022/11/02 10:42:32;;;;;;;7.50;2.50;;;;;;;11.98;100.00;100027.72;4924901;29;20050;-75
2022/11/02 10:45:17;;;;;;;7.18;1.52;;;;;;;12.10;100.00;100009.31;4955131;28;20061;-74
2022/11/02 10:48:01;;;;;;;8.15;1.23;;;;;;;12.21;100.00;99982.06;4946223;29;20096;-75
2022/11/02 10:50:45;;;;;;;6.50;1.98;;;;;;;12.15;100.00;99907.91;4945401;29;20411;-75
2022/11/02 10:53:15;;;;;;;5.63;1.88;;;;;;;12.31;100.00;99933.56;4928557;29;20129;-72
2022/11/02 10:55:46;;;;;;;7.63;1.20;;;;;;;12.33;100.00;99949.44;4920436;29;20043;-74
2022/11/02 10:58:18;;;;;;;6.63;1.65;;;;;;;12.34;100.00;99889.50;4946392;29;20158;-75
2022/11/02 11:00:43;;;;;;;11.32;1.52;;;;;;;12.21;100.00;99786.72;4945575;28;20130;-75
2022/11/02 11:03:14;;;;;;;10.30;1.67;;;;;;;12.14;100.00;99843.88;4944902;29;20528;-76
2022/11/02 11:05:49;;;;;;;6.68;1.75;;;;;;;11.60;100.00;100102.72;4912515;29;20287;-77
2022/11/02 11:08:36;;;;;;;7.88;1.70;;;;;;;11.27;100.00;100495.09;4960919;28;20035;-77
2022/11/02 11:11:16;;;;;;;11.38;2.13;;;;;;;10.80;100.00;100752.28;4915906;29;20042;-77
2022/11/02 11:13:45;;;;;;;11.55;2.97;;;;;;;10.47;100.00;100861.63;4938098;29;20039;-77
2022/11/02 11:16:11;;;;;;;7.75;1.75;;;;;;;10.26;100.00;100895.84;4946068;29;20045;-76
2022/11/02 11:18:37;;;;;;;10.40;1.33;;;;;;;9.99;100.00;100875.44;4960231;28;20485;-76
2022/11/02 11:21:03;;;;;;;9.98;2.85;;;;;;;9.91;100.00;100893.06;4953657;28;20039;-76
2022/11/02 11:23:29;;;;;;;2.17;1.35;;;;;;;9.79;100.00;100915.63;4913010;29;20130;-75
2022/11/02 11:25:56;;;;;;;3.10;1.10;;;;;;;9.68;100.00;100878.53;4943953;29;20138;-77
2022/11/02 11:28:28;;;;;;;2.47;1.08;;;;;;;9.54;100.00;100868.44;4913110;29;20082;-76
2022/11/02 11:31:03;;;;;;;6.15;1.98;;;;;;;9.43;100.00;100880.13;4936791;29;20035;-77
2022/11/02 11:33:31;;;;;;;8.63;2.00;;;;;;;9.40;100.00;100878.63;4928687;29;20066;-76
2022/11/02 11:35:58;;;;;;;4.50;1.10;;;;;;;9.47;100.00;100897.50;4941911;29;20500;-77
2022/11/02 11:38:26;;;;;;;;;;;;;;;9.38;100.00;100896.56;4926519;29;20086;-77
2022/11/02 11:40:53;;;;;;;3.50;1.00;;;;;;;9.39;100.00;100905.41;4928686;29;20014;-76
2022/11/02 11:43:23;;;;;;;6.05;0.98;;;;;;;9.42;100.00;100915.78;4928883;29;20027;-77
2022/11/02 11:45:58;;;;;;;3.78;0.80;;;;;;;9.56;100.00;100939.25;4937246;29;20094;-77